Time;durP1;ratioP1;P1;durP2;ratioP2;P2;SDS_P1;SDS_P2;PMS_P1;PMS_P2;Temp;Humidity;BMP_temperature;BMP_pressure;BME280_temperature;BME280_humidity;BME280_pressure;Samples;Min_cycle;Max_cycle;Signal;HPM_P1;HPM_P2
2022/01/27 00:03:28;;;;;;;7.00;3.90;;;;;;100683.73;;;;106704;1297;63390;-42
2022/01/27 00:06:00;;;;;;;9.20;3.60;;;;;;100691.05;;;;106601;1297;63425;-34
2022/01/27 00:11:01;;;;;;;6.70;3.30;;;;;;100687.53;;;;106703;1297;63461;-38
2022/01/27 00:13:31;;;;;;;;;;;;;;100687.61;;;;106549;1297;63389;-35
2022/01/27 00:16:23;;;;;;;6.40;3.40;;;;;;100681.15;;;;106563;1297;63465;-34
2022/01/27 00:18:53;;;;;;;7.80;3.50;;;;;;100680.77;;;;106751;1295;63433;-42
2022/01/27 00:21:25;;;;;;;6.40;3.50;;;;;;100681.16;;;;106576;1297;66506;-41
2022/01/27 00:23:53;;;;;;;7.00;3.70;;;;;;100682.29;;;;106727;1297;63493;-41
2022/01/27 00:26:22;;;;;;;5.90;3.40;;;;;;100678.27;;;;106711;1296;63366;-42
2022/01/27 00:28:51;;;;;;;6.30;3.50;;;;;;100677.27;;;;106629;1297;63495;-44
2022/01/27 00:31:21;;;;;;;7.50;3.30;;;;;;100670.95;;;;106722;1297;63479;-42
2022/01/27 00:33:50;;;;;;;7.10;3.40;;;;;;100671.09;;;;106724;1297;67488;-42
2022/01/27 00:36:18;;;;;;;6.80;3.50;;;;;;100665.02;;;;106709;1295;63427;-44
2022/01/27 00:38:46;;;;;;;6.20;3.40;;;;;;100666.26;;;;106709;1296;63450;-39
2022/01/27 00:41:14;;;;;;;6.60;3.20;;;;;;100667.23;;;;106543;1295;63427;-40
2022/01/27 00:43:43;;;;;;;6.50;3.20;;;;;;100673.25;;;;106605;1296;63482;-41
2022/01/27 00:46:10;;;;;;;8.20;3.10;;;;;;100672.30;;;;106720;1296;69200;-42
2022/01/27 00:48:39;;;;;;;6.30;3.30;;;;;;100668.70;;;;106725;1296;63547;-41
2022/01/27 00:51:08;;;;;;;5.70;3.30;;;;;;100667.70;;;;106571;1296;63453;-41
2022/01/27 00:53:53;;;;;;;6.50;3.40;;;;;;100668.38;;;;106724;1296;63465;-42
2022/01/27 00:56:25;;;;;;;6.00;3.40;;;;;;100670.52;;;;106730;1296;63358;-43
2022/01/27 00:59:05;;;;;;;6.70;3.50;;;;;;100669.75;;;;106592;1297;68086;-39
2022/01/27 01:01:40;;;;;;;6.10;3.50;;;;;;100668.20;;;;106553;1296;63435;-38
2022/01/27 01:04:09;;;;;;;6.30;3.30;;;;;;100670.87;;;;106509;1295;295390;-39
2022/01/27 01:06:43;;;;;;;5.70;3.10;;;;;;100672.65;;;;106713;1297;63498;-34
2022/01/27 01:33:05;;;;;;;;;;;;;;100655.64;;;;106729;1296;63336;-44
2022/01/27 01:35:47;;;;;;;5.70;3.10;;;;;;100661.87;;;;106750;1297;63428;-37
2022/01/27 01:38:18;;;;;;;6.00;3.40;;;;;;100661.49;;;;106736;1296;68267;-44
2022/01/27 01:40:49;;;;;;;5.50;3.20;;;;;;100659.88;;;;106704;1296;63450;-42
2022/01/27 01:43:17;;;;;;;6.10;3.20;;;;;;100659.61;;;;106715;1297;63365;-39
2022/01/27 01:45:45;;;;;;;6.00;3.10;;;;;;100659.98;;;;106702;1296;63464;-40
2022/01/27 01:48:16;;;;;;;10.60;3.70;;;;;;100655.20;;;;106738;1297;63353;-43
2022/01/27 01:50:44;;;;;;;5.80;3.00;;;;;;100654.58;;;;106723;1296;66993;-43
2022/01/27 01:53:11;;;;;;;5.90;3.00;;;;;;100655.58;;;;106712;1295;63577;-35
2022/01/27 01:55:39;;;;;;;5.40;2.80;;;;;;100647.83;;;;106722;1297;63465;-34
2022/01/27 01:58:06;;;;;;;5.70;3.10;;;;;;100645.84;;;;106562;1297;63435;-42
2022/01/27 02:00:33;;;;;;;5.30;3.10;;;;;;100649.02;;;;106732;1297;63409;-45
2022/01/27 02:03:01;;;;;;;6.70;3.00;;;;;;100651.49;;;;106716;1295;67359;-42
2022/01/27 02:05:33;;;;;;;6.30;3.10;;;;;;100650.51;;;;106727;1296;63542;-47
2022/01/27 02:08:39;;;;;;;6.00;2.90;;;;;;100649.38;;;;106734;1295;63358;-42
2022/01/27 02:19:18;;;;;;;6.40;3.50;;;;;;100642.46;;;;106733;1296;63383;-44
2022/01/27 02:21:52;;;;;;;6.30;3.50;;;;;;100641.10;;;;106551;1297;63429;-43
2022/01/27 02:24:22;;;;;;;7.10;3.80;;;;;;100639.16;;;;106635;1297;63480;-42
2022/01/27 02:26:50;;;;;;;8.30;3.70;;;;;;100629.13;;;;106718;1295;63344;-43
2022/01/27 02:29:19;;;;;;;8.20;3.70;;;;;;100626.00;;;;106551;1296;65629;-34
2022/01/27 02:31:48;;;;;;;7.10;3.70;;;;;;100627.15;;;;106578;1297;63381;-33
2022/01/27 02:34:15;;;;;;;5.90;3.70;;;;;;100623.80;;;;106549;1296;63406;-34
2022/01/27 02:36:42;;;;;;;8.20;3.90;;;;;;100611.62;;;;106571;1296;63376;-34
2022/01/27 02:39:11;;;;;;;6.00;3.60;;;;;;100608.23;;;;106717;1297;63330;-36
2022/01/27 02:42:21;;;;;;;5.90;3.40;;;;;;100603.55;;;;106688;1295;66759;-32
2022/01/27 02:44:54;;;;;;;7.40;3.70;;;;;;100600.59;;;;106711;1297;63367;-33
2022/01/27 02:47:23;;;;;;;11.40;3.70;;;;;;100604.98;;;;106688;1296;63293;-41
2022/01/27 02:49:50;;;;;;;7.10;3.60;;;;;;100605.77;;;;106673;1297;63428;-38
2022/01/27 02:52:17;;;;;;;7.40;3.60;;;;;;100602.79;;;;106707;1296;63371;-43
2022/01/27 02:54:44;;;;;;;6.50;3.50;;;;;;100600.61;;;;106699;1296;66996;-40
2022/01/27 02:57:12;;;;;;;6.70;3.70;;;;;;100595.63;;;;106698;1296;63553;-46
2022/01/27 02:59:39;;;;;;;7.60;3.90;;;;;;100594.50;;;;106693;1296;63444;-35
2022/01/27 03:02:06;;;;;;;8.60;4.00;;;;;;100594.11;;;;106709;1295;63982;-33
2022/01/27 03:04:36;;;;;;;7.10;3.70;;;;;;100587.32;;;;106730;1297;63341;-37
2022/01/27 03:07:06;;;;;;;6.70;3.60;;;;;;100584.79;;;;106703;1295;67351;-38
2022/01/27 03:09:35;;;;;;;6.90;3.30;;;;;;100589.77;;;;106698;1297;63392;-45
2022/01/27 03:12:13;;;;;;;6.30;3.70;;;;;;100588.31;;;;106697;1296;63836;-34
2022/01/27 03:14:42;;;;;;;6.70;3.50;;;;;;100589.49;;;;106693;1295;63476;-41
2022/01/27 03:17:10;;;;;;;5.70;3.30;;;;;;100581.56;;;;106634;1296;63407;-42
2022/01/27 03:19:38;;;;;;;7.30;3.80;;;;;;100581.02;;;;106634;1295;65824;-42
2022/01/27 03:22:06;;;;;;;6.00;3.70;;;;;;100577.02;;;;106709;1297;63410;-35
2022/01/27 03:24:38;;;;;;;6.80;3.70;;;;;;100577.02;;;;106688;1296;63435;-35
2022/01/27 03:27:13;;;;;;;6.70;3.90;;;;;;100570.36;;;;106678;1297;63468;-36
2022/01/27 03:29:40;;;;;;;6.60;3.60;;;;;;100576.35;;;;106699;1296;63486;-41
2022/01/27 03:32:16;;;;;;;6.80;3.80;;;;;;100577.05;;;;106730;1296;68256;-41
2022/01/27 03:34:44;;;;;;;7.50;3.70;;;;;;100579.56;;;;106636;1297;63817;-42
2022/01/27 03:37:11;;;;;;;7.80;4.20;;;;;;100584.33;;;;106695;1297;63457;-45
2022/01/27 03:39:40;;;;;;;7.20;3.70;;;;;;100582.91;;;;106675;1297;63462;-43
2022/01/27 03:42:11;;;;;;;8.20;4.30;;;;;;100581.91;;;;106573;1295;63423;-43
2022/01/27 03:44:38;;;;;;;7.10;4.00;;;;;;100585.17;;;;106700;1296;67511;-41
2022/01/27 03:47:05;;;;;;;8.20;3.80;;;;;;100582.96;;;;106690;1297;63409;-39
2022/01/27 03:49:33;;;;;;;7.50;3.90;;;;;;100584.86;;;;106695;1296;63404;-40
2022/01/27 03:52:01;;;;;;;6.80;3.40;;;;;;100584.08;;;;106709;1297;63384;-44
2022/01/27 03:54:30;;;;;;;7.70;3.90;;;;;;100581.14;;;;106721;1296;63410;-41
2022/01/27 03:56:59;;;;;;;7.10;3.80;;;;;;100580.52;;;;106702;1295;67290;-42
2022/01/27 03:59:27;;;;;;;6.40;3.70;;;;;;100583.48;;;;106697;1297;63465;-41
2022/01/27 04:01:56;;;;;;;7.00;3.80;;;;;;100576.16;;;;106709;1296;63764;-41
2022/01/27 04:04:26;;;;;;;7.80;4.00;;;;;;100570.23;;;;106693;1296;63449;-33
2022/01/27 04:06:54;;;;;;;6.50;3.60;;;;;;100561.02;;;;106713;1296;63425;-35
2022/01/27 04:09:22;;;;;;;6.80;3.60;;;;;;100558.34;;;;106713;1296;65500;-41
2022/01/27 04:11:49;;;;;;;6.50;4.00;;;;;;100544.71;;;;106701;1297;63555;-42
2022/01/27 04:14:16;;;;;;;7.20;3.70;;;;;;100543.98;;;;106704;1296;63339;-44
2022/01/27 04:16:43;;;;;;;6.20;3.40;;;;;;100539.67;;;;106698;1297;63430;-44
2022/01/27 04:19:11;;;;;;;6.00;3.50;;;;;;100547.96;;;;106718;1297;63484;-42
2022/01/27 04:21:38;;;;;;;7.40;4.10;;;;;;100549.63;;;;106700;1295;67329;-43
2022/01/27 04:24:06;;;;;;;7.10;3.90;;;;;;100550.52;;;;106699;1297;63454;-42
2022/01/27 04:26:45;;;;;;;6.70;3.90;;;;;;100546.83;;;;106697;1296;63409;-42
2022/01/27 04:29:14;;;;;;;8.00;4.10;;;;;;100547.45;;;;106619;1297;63451;-43
2022/01/27 04:31:46;;;;;;;7.60;4.30;;;;;;100542.42;;;;106712;1296;63400;-38
2022/01/27 04:34:14;;;;;;;6.60;3.40;;;;;;100541.05;;;;106648;1297;67297;-42
2022/01/27 04:36:42;;;;;;;6.40;3.80;;;;;;100542.66;;;;106718;1296;63568;-43
2022/01/27 04:39:20;;;;;;;8.30;3.50;;;;;;100538.02;;;;106714;1295;63441;-43
2022/01/27 04:41:55;;;;;;;6.30;3.30;;;;;;100535.70;;;;106699;1295;63412;-42
2022/01/27 04:44:30;;;;;;;7.90;3.50;;;;;;100538.10;;;;106657;1297;63442;-42
2022/01/27 04:47:23;;;;;;;7.30;3.90;;;;;;100537.16;;;;106570;1296;66777;-42
2022/01/27 04:49:51;;;;;;;6.00;3.00;;;;;;100534.45;;;;106649;1297;63394;-42
2022/01/27 04:52:18;;;;;;;6.00;3.40;;;;;;100532.77;;;;106720;1296;63406;-42
2022/01/27 04:57:18;;;;;;;7.10;3.90;;;;;;100533.58;;;;106730;1297;63337;-42
2022/01/27 04:59:45;;;;;;;7.00;3.30;;;;;;100534.11;;;;106731;1297;65619;-42
2022/01/27 05:02:25;;;;;;;7.50;3.80;;;;;;100534.23;;;;106710;1296;63485;-42
2022/01/27 05:04:55;;;;;;;6.50;3.60;;;;;;100533.94;;;;106736;1296;63442;-43
2022/01/27 05:07:22;;;;;;;7.00;3.80;;;;;;100529.14;;;;106721;1296;63482;-42
2022/01/27 05:09:58;;;;;;;8.40;3.60;;;;;;100515.02;;;;106744;1297;63368;-42
2022/01/27 05:14:58;;;;;;;6.40;3.30;;;;;;100497.01;;;;106716;1296;63464;-42
2022/01/27 05:17:28;;;;;;;6.90;3.80;;;;;;100501.66;;;;106702;1296;63321;-43
2022/01/27 05:19:55;;;;;;;6.00;3.20;;;;;;100497.90;;;;106701;1297;63422;-42
2022/01/27 05:22:22;;;;;;;6.40;3.30;;;;;;100492.52;;;;106733;1296;63319;-43
2022/01/27 05:24:50;;;;;;;6.20;3.20;;;;;;100497.17;;;;106720;1296;66761;-43
2022/01/27 05:27:23;;;;;;;6.90;3.50;;;;;;100497.38;;;;106715;1296;63387;-42
2022/01/27 05:29:52;;;;;;;6.50;3.00;;;;;;100494.58;;;;106582;1297;63483;-47
2022/01/27 05:32:20;;;;;;;7.30;3.60;;;;;;100491.04;;;;106725;1294;63300;-47
2022/01/27 05:34:47;;;;;;;6.60;3.50;;;;;;100494.41;;;;106727;1296;63370;-42
2022/01/27 05:37:15;;;;;;;6.10;3.60;;;;;;100494.95;;;;106741;1297;65242;-42
2022/01/27 05:39:45;;;;;;;5.70;3.10;;;;;;100485.98;;;;106712;1296;63506;-42
2022/01/27 05:42:11;;;;;;;6.40;3.60;;;;;;100489.49;;;;106733;1296;63344;-43
2022/01/27 05:44:38;;;;;;;5.50;3.00;;;;;;100487.18;;;;106710;1296;63484;-42
2022/01/27 05:47:08;;;;;;;7.40;3.80;;;;;;100482.22;;;;106722;1295;63955;-43
2022/01/27 05:49:36;;;;;;;6.30;3.30;;;;;;100481.04;;;;106714;1296;67062;-42
2022/01/27 05:52:03;;;;;;;7.40;3.80;;;;;;100477.87;;;;106732;1295;63396;-42
2022/01/27 05:54:31;;;;;;;6.50;3.30;;;;;;100478.86;;;;106720;1296;63538;-42
2022/01/27 05:57:02;;;;;;;6.30;3.00;;;;;;100479.79;;;;106636;1297;63384;-42
2022/01/27 05:59:30;;;;;;;7.20;3.30;;;;;;100478.47;;;;106756;1296;63478;-43
2022/01/27 06:01:57;;;;;;;6.30;3.20;;;;;;100485.98;;;;106731;1296;67098;-43
2022/01/27 06:04:23;;;;;;;6.60;3.00;;;;;;100475.61;;;;106705;1297;63526;-43
2022/01/27 06:06:53;;;;;;;5.60;3.20;;;;;;100476.10;;;;106735;1296;63412;-43
2022/01/27 06:09:23;;;;;;;5.90;3.50;;;;;;100469.96;;;;106706;1296;63342;-42
2022/01/27 06:11:50;;;;;;;6.00;3.30;;;;;;100468.63;;;;106604;1297;63392;-42
2022/01/27 06:14:18;;;;;;;6.80;3.20;;;;;;100460.47;;;;106714;1296;65737;-42
2022/01/27 06:16:45;;;;;;;6.00;3.40;;;;;;100456.11;;;;106681;1296;63518;-42
2022/01/27 06:19:13;;;;;;;6.30;3.10;;;;;;100452.43;;;;106714;1295;63382;-42
2022/01/27 06:21:43;;;;;;;5.90;2.90;;;;;;100454.95;;;;106707;1297;63500;-42
2022/01/27 06:24:11;;;;;;;6.00;3.20;;;;;;100459.41;;;;106730;1297;63386;-42
2022/01/27 06:26:38;;;;;;;7.80;3.70;;;;;;100452.89;;;;106725;1295;66152;-42
2022/01/27 06:29:05;;;;;;;6.70;3.50;;;;;;100441.35;;;;106692;1295;63609;-43
2022/01/27 06:31:32;;;;;;;7.20;3.20;;;;;;100436.16;;;;106699;1297;63368;-42
2022/01/27 06:34:02;;;;;;;7.00;3.40;;;;;;100431.13;;;;106686;1297;63433;-42
2022/01/27 06:36:29;;;;;;;6.50;3.40;;;;;;100423.84;;;;106725;1297;63337;-42
2022/01/27 06:38:56;;;;;;;5.80;3.20;;;;;;100423.50;;;;106720;1296;66343;-42
2022/01/27 06:41:23;;;;;;;6.70;3.40;;;;;;100422.79;;;;106701;1295;63439;-42
2022/01/27 06:43:53;;;;;;;6.30;3.60;;;;;;100421.27;;;;106709;1297;63404;-43
2022/01/27 06:46:20;;;;;;;6.80;3.60;;;;;;100410.20;;;;106715;1296;63329;-43
2022/01/27 06:48:47;;;;;;;6.40;3.30;;;;;;100405.52;;;;106739;1296;63403;-43
2022/01/27 06:51:14;;;;;;;7.20;3.40;;;;;;100410.84;;;;106729;1295;67016;-42
2022/01/27 06:53:41;;;;;;;6.20;3.10;;;;;;100416.45;;;;106703;1297;63479;-43
2022/01/27 06:56:08;;;;;;;6.10;3.40;;;;;;100409.41;;;;106728;1296;63401;-43
2022/01/27 06:58:37;;;;;;;7.10;3.60;;;;;;100412.11;;;;106725;1296;63362;-43
2022/01/27 07:01:07;;;;;;;6.40;3.30;;;;;;100407.13;;;;106725;1295;63319;-42
2022/01/27 07:03:34;;;;;;;7.60;3.70;;;;;;100403.01;;;;106714;1297;68032;-42
2022/01/27 07:06:02;;;;;;;7.20;4.10;;;;;;100404.25;;;;106720;1295;63521;-43
2022/01/27 07:08:29;;;;;;;6.50;3.50;;;;;;100401.28;;;;106600;1297;63407;-42
2022/01/27 07:10:56;;;;;;;6.20;3.50;;;;;;100410.16;;;;106697;1297;63395;-42
2022/01/27 07:13:23;;;;;;;7.70;3.70;;;;;;100403.93;;;;106678;1296;63404;-42
2022/01/27 07:15:51;;;;;;;6.50;3.70;;;;;;100406.42;;;;106685;1295;67192;-42
2022/01/27 07:18:18;;;;;;;6.00;3.40;;;;;;100403.34;;;;106660;1297;63357;-42
2022/01/27 07:20:48;;;;;;;6.30;3.50;;;;;;100397.95;;;;106724;1296;63454;-42
2022/01/27 07:23:15;;;;;;;6.40;3.00;;;;;;100391.98;;;;106616;1297;63359;-42
2022/01/27 07:25:43;;;;;;;6.60;3.50;;;;;;100395.77;;;;106747;1297;63405;-43
2022/01/27 07:28:10;;;;;;;6.20;3.10;;;;;;100395.80;;;;106717;1296;65957;-42
2022/01/27 07:30:37;;;;;;;7.50;4.00;;;;;;100390.30;;;;106716;1296;63621;-42
2022/01/27 07:33:04;;;;;;;7.10;4.00;;;;;;100389.58;;;;106722;1296;63521;-43
2022/01/27 07:35:32;;;;;;;6.60;3.50;;;;;;100397.67;;;;106719;1295;63494;-42
2022/01/27 07:37:59;;;;;;;7.30;3.90;;;;;;100399.79;;;;106736;1296;63392;-42
2022/01/27 07:40:29;;;;;;;7.90;4.30;;;;;;100401.83;;;;106750;1297;66541;-42
2022/01/27 07:43:01;;;;;;;7.20;4.00;;;;;;100397.91;;;;106666;1296;63402;-43
2022/01/27 07:45:28;;;;;;;7.50;3.90;;;;;;100394.52;;;;106653;1297;63384;-43
2022/01/27 07:47:57;;;;;;;7.10;4.00;;;;;;100392.30;;;;106722;1296;63488;-42
2022/01/27 07:50:29;;;;;;;6.90;3.90;;;;;;100390.61;;;;106750;1297;63467;-41
2022/01/27 07:52:57;;;;;;;8.80;4.20;;;;;;100393.40;;;;106664;1294;67174;-41
2022/01/27 07:55:25;;;;;;;8.60;4.30;;;;;;100390.05;;;;106572;1294;63622;-43
2022/01/27 07:57:54;;;;;;;9.30;5.30;;;;;;100377.70;;;;106683;1296;63381;-42
2022/01/27 08:00:21;;;;;;;8.50;4.80;;;;;;100372.08;;;;106796;1293;63378;-42
2022/01/27 08:02:49;;;;;;;9.80;5.50;;;;;;100358.67;;;;106879;1293;63377;-41
2022/01/27 08:05:18;;;;;;;9.10;5.00;;;;;;100358.73;;;;106872;1293;65595;-42
2022/01/27 08:07:45;;;;;;;8.80;5.00;;;;;;100363.02;;;;106645;1296;63401;-41
2022/01/27 08:10:12;;;;;;;11.20;5.70;;;;;;100369.33;;;;106751;1294;63490;-44
2022/01/27 08:12:41;;;;;;;8.00;4.80;;;;;;100357.77;;;;106589;1297;63480;-41
2022/01/27 08:15:12;;;;;;;10.20;5.20;;;;;;100351.09;;;;106547;1294;63484;-43
2022/01/27 08:17:41;;;;;;;10.00;5.40;;;;;;100346.23;;;;106679;1294;66740;-41
2022/01/27 08:20:09;;;;;;;8.20;4.60;;;;;;100335.72;;;;106615;1295;63539;-41
2022/01/27 08:22:38;;;;;;;9.30;5.20;;;;;;100325.08;;;;106706;1294;63473;-43
2022/01/27 08:25:05;;;;;;;10.40;5.60;;;;;;100315.10;;;;106835;1294;63440;-42
2022/01/27 08:27:33;;;;;;;10.80;5.70;;;;;;100307.65;;;;106806;1294;64159;-44
2022/01/27 08:30:04;;;;;;;10.50;4.70;;;;;;100300.68;;;;106770;1294;67776;-45
2022/01/27 08:35:18;;;;;;;10.10;5.90;;;;;;100305.83;;;;106823;1293;63375;-43
2022/01/27 08:37:46;;;;;;;10.80;5.40;;;;;;100306.22;;;;106822;1293;63756;-38
2022/01/27 08:40:15;;;;;;;8.60;5.10;;;;;;100299.57;;;;106859;1293;63385;-36
2022/01/27 08:42:43;;;;;;;9.60;5.70;;;;;;100288.98;;;;106613;1297;66060;-42
2022/01/27 08:45:13;;;;;;;11.40;5.70;;;;;;100301.34;;;;106650;1294;63440;-43
2022/01/27 08:47:42;;;;;;;9.10;5.10;;;;;;100288.01;;;;106637;1297;63451;-44
2022/01/27 08:50:11;;;;;;;12.00;5.40;;;;;;100284.20;;;;106701;1294;63385;-46
2022/01/27 08:52:40;;;;;;;10.00;5.30;;;;;;100281.46;;;;106861;1293;63422;-43
2022/01/27 08:55:08;;;;;;;9.80;5.20;;;;;;100292.70;;;;106594;1294;66624;-42
2022/01/27 08:57:36;;;;;;;9.80;5.40;;;;;;100296.41;;;;106829;1293;63643;-34
2022/01/27 09:00:07;;;;;;;8.50;5.30;;;;;;100300.30;;;;106749;1293;64597;-32
2022/01/27 09:02:34;;;;;;;9.80;5.50;;;;;;100294.01;;;;106613;1294;63399;-39
2022/01/27 09:05:02;;;;;;;8.90;5.30;;;;;;100292.42;;;;106637;1294;264357;-42
2022/01/27 09:07:29;;;;;;;10.70;5.80;;;;;;100292.24;;;;106844;1294;67735;-48
2022/01/27 09:09:57;;;;;;;10.70;5.30;;;;;;100279.06;;;;106816;1294;63504;-45
2022/01/27 09:12:24;;;;;;;10.20;5.50;;;;;;100277.00;;;;106763;1294;63408;-41
2022/01/27 09:14:51;;;;;;;9.30;5.50;;;;;;100283.63;;;;106557;1296;63435;-44
2022/01/27 09:17:18;;;;;;;9.60;5.80;;;;;;100278.77;;;;106739;1296;63451;-43
2022/01/27 09:19:46;;;;;;;9.70;5.50;;;;;;100270.39;;;;106687;1297;65533;-44
2022/01/27 09:22:16;;;;;;;8.70;5.20;;;;;;100260.38;;;;106743;1296;63504;-38
2022/01/27 09:24:59;;;;;;;9.60;4.90;;;;;;100258.52;;;;106742;1296;63356;-41
2022/01/27 09:27:27;;;;;;;9.50;5.30;;;;;;100251.38;;;;106730;1296;63514;-42
2022/01/27 09:29:54;;;;;;;8.60;4.80;;;;;;100248.65;;;;106609;1297;63399;-42
2022/01/27 09:32:21;;;;;;;8.40;5.20;;;;;;100248.82;;;;106590;1297;67031;-42
2022/01/27 09:34:48;;;;;;;7.60;4.50;;;;;;100245.48;;;;106529;1295;63621;-42
2022/01/27 09:37:16;;;;;;;9.00;5.10;;;;;;100241.85;;;;106661;1296;63358;-42
2022/01/27 09:39:44;;;;;;;9.70;5.40;;;;;;100243.51;;;;106457;1296;63407;-42
2022/01/27 09:42:13;;;;;;;7.60;4.80;;;;;;100236.80;;;;106568;1297;63426;-41
2022/01/27 09:44:42;;;;;;;9.40;5.20;;;;;;100234.89;;;;106524;1295;65521;-42
2022/01/27 09:47:15;;;;;;;8.70;5.00;;;;;;100234.31;;;;106585;1296;63381;-33
2022/01/27 09:49:43;;;;;;;9.10;5.30;;;;;;100224.23;;;;106714;1296;63387;-48
2022/01/27 09:52:11;;;;;;;9.10;5.20;;;;;;100227.34;;;;106715;1297;63349;-32
2022/01/27 09:54:38;;;;;;;8.10;5.10;;;;;;100221.96;;;;106751;1297;63399;-32
2022/01/27 09:57:05;;;;;;;11.50;5.10;;;;;;100212.20;;;;106743;1295;67783;-34
2022/01/27 09:59:33;;;;;;;7.80;4.70;;;;;;100214.98;;;;106639;1297;63515;-43
2022/01/27 10:02:06;;;;;;;9.00;5.00;;;;;;100207.23;;;;106681;1296;63473;-41
2022/01/27 10:04:46;;;;;;;7.80;5.00;;;;;;100200.35;;;;106574;1296;63451;-42
2022/01/27 10:07:17;;;;;;;9.50;4.80;;;;;;100195.10;;;;106597;1295;63397;-42
2022/01/27 10:10:14;;;;;;;7.80;4.80;;;;;;100192.23;;;;106749;1297;68322;-44
2022/01/27 10:12:50;;;;;;;7.70;4.80;;;;;;100194.27;;;;106478;1297;63474;-42
2022/01/27 10:15:23;;;;;;;11.10;4.90;;;;;;100183.75;;;;106710;1294;63445;-47
2022/01/27 10:18:08;;;;;;;7.80;5.20;;;;;;100184.83;;;;106580;1296;63712;-35
2022/01/27 10:21:01;;;;;;;8.20;4.90;;;;;;100180.33;;;;106739;1296;63457;-42
2022/01/27 10:23:33;;;;;;;7.70;4.70;;;;;;100185.08;;;;106537;1297;68683;-44
2022/01/27 10:26:13;;;;;;;8.10;4.70;;;;;;100185.30;;;;106701;1297;63424;-42
2022/01/27 10:28:50;;;;;;;7.50;4.60;;;;;;100177.73;;;;106750;1297;63480;-45
2022/01/27 10:31:24;;;;;;;7.60;4.50;;;;;;100169.31;;;;106570;1296;63537;-41
2022/01/27 10:33:52;;;;;;;;;;;;;;100163.77;;;;106674;1296;63732;-37
2022/01/27 10:36:32;;;;;;;7.80;4.70;;;;;;100159.48;;;;106556;1297;66796;-34
2022/01/27 10:39:06;;;;;;;6.70;4.50;;;;;;100157.89;;;;106725;1297;63521;-31
2022/01/27 10:41:38;;;;;;;7.80;4.70;;;;;;100157.95;;;;106545;1296;63615;-42
2022/01/27 10:44:16;;;;;;;7.60;4.30;;;;;;100154.11;;;;106711;1297;63484;-44
2022/01/27 10:47:11;;;;;;;6.70;4.30;;;;;;100148.86;;;;106570;1297;63554;-46
2022/01/27 10:49:45;;;;;;;7.70;4.50;;;;;;100142.64;;;;106733;1297;66550;-32
2022/01/27 10:52:46;;;;;;;8.00;4.50;;;;;;100138.23;;;;106696;1295;63638;-46
2022/01/27 10:55:17;;;;;;;7.90;4.70;;;;;;100130.93;;;;106734;1297;63624;-41
2022/01/27 10:57:50;;;;;;;7.10;4.50;;;;;;100127.65;;;;106597;1297;63519;-43
2022/01/27 11:00:21;;;;;;;8.80;4.90;;;;;;100122.92;;;;106579;1295;63536;-43
2022/01/27 11:02:56;;;;;;;8.30;4.60;;;;;;100116.60;;;;106754;1297;66712;-41
2022/01/27 11:05:41;;;;;;;7.10;4.10;;;;;;100112.00;;;;106687;1297;63450;-41
2022/01/27 11:08:08;;;;;;;7.70;4.60;;;;;;100105.59;;;;106704;1296;63555;-43
2022/01/27 11:10:35;;;;;;;8.40;4.50;;;;;;100102.19;;;;106714;1297;63550;-42
2022/01/27 11:13:02;;;;;;;7.50;4.50;;;;;;100098.51;;;;106739;1296;63491;-42
2022/01/27 11:15:30;;;;;;;7.60;4.10;;;;;;100093.34;;;;106563;1297;66744;-46
2022/01/27 11:17:57;;;;;;;6.90;4.30;;;;;;100087.98;;;;106564;1297;63886;-40
2022/01/27 11:20:31;;;;;;;7.00;4.00;;;;;;100083.64;;;;106736;1297;63462;-46
2022/01/27 11:28:03;;;;;;;7.50;4.30;;;;;;100062.08;;;;106583;1296;67269;-40
2022/01/27 11:31:09;;;;;;;7.00;4.40;;;;;;100060.17;;;;106590;1297;63413;-42
2022/01/27 11:33:38;;;;;;;7.10;3.90;;;;;;100052.66;;;;106407;1297;63539;-35
2022/01/27 11:36:14;;;;;;;7.70;4.30;;;;;;100053.60;;;;106760;1296;63399;-37
2022/01/27 11:38:43;;;;;;;7.60;4.00;;;;;;100049.95;;;;106815;1297;63364;-45
2022/01/27 11:41:44;;;;;;;7.90;3.90;;;;;;100047.70;;;;106641;1296;65953;-37
2022/01/27 11:44:28;;;;;;;7.20;3.80;;;;;;100040.79;;;;106601;1296;63537;-35
2022/01/27 11:47:16;;;;;;;7.10;4.00;;;;;;100035.77;;;;106758;1296;63475;-35
2022/01/27 11:49:56;;;;;;;6.60;4.20;;;;;;100036.84;;;;106752;1297;63452;-37
2022/01/27 11:52:52;;;;;;;6.70;3.90;;;;;;100032.11;;;;106799;1296;63356;-36
2022/01/27 11:55:25;;;;;;;7.40;3.70;;;;;;100027.80;;;;106705;1296;69021;-37
2022/01/27 11:58:21;;;;;;;;;;;;;;100024.40;;;;106780;1296;63399;-37
2022/01/27 12:01:14;;;;;;;5.90;3.20;;;;;;100017.92;;;;106768;1296;63384;-37
2022/01/27 12:04:07;;;;;;;6.40;3.50;;;;;;100020.52;;;;106766;1296;63352;-34
2022/01/27 12:06:47;;;;;;;6.30;3.50;;;;;;100020.20;;;;106591;1297;63357;-35
2022/01/27 12:09:18;;;;;;;6.10;3.70;;;;;;100016.87;;;;106739;1297;66811;-36
2022/01/27 12:11:54;;;;;;;6.80;3.80;;;;;;100008.76;;;;106738;1297;63429;-35
2022/01/27 12:14:34;;;;;;;7.00;3.30;;;;;;99999.63;;;;106759;1295;63440;-35
2022/01/27 12:17:10;;;;;;;7.20;3.90;;;;;;99995.39;;;;106749;1294;63399;-43
2022/01/27 12:19:52;;;;;;;5.70;2.90;;;;;;99998.94;;;;106758;1294;63478;-42
2022/01/27 12:22:24;;;;;;;6.90;3.30;;;;;;99986.00;;;;106639;1297;68190;-43
2022/01/27 12:25:00;;;;;;;6.70;3.70;;;;;;99981.48;;;;106811;1293;63485;-44
2022/01/27 12:27:30;;;;;;;5.60;3.50;;;;;;99978.67;;;;106822;1294;63365;-34
2022/01/27 12:29:59;;;;;;;5.40;3.00;;;;;;99968.20;;;;106572;1297;63471;-35
2022/01/27 12:32:32;;;;;;;6.10;3.10;;;;;;99963.81;;;;106823;1293;63432;-40
2022/01/27 12:35:03;;;;;;;5.50;3.20;;;;;;99966.85;;;;106654;1297;67708;-32
2022/01/27 12:37:37;;;;;;;6.20;3.20;;;;;;99960.02;;;;106606;1297;63494;-34
2022/01/27 12:40:16;;;;;;;5.30;2.70;;;;;;99963.24;;;;106773;1294;63471;-50
2022/01/27 12:42:59;;;;;;;6.30;2.80;;;;;;99952.39;;;;106745;1294;63428;-36
2022/01/27 12:45:37;;;;;;;5.90;2.90;;;;;;99944.07;;;;106826;1293;63409;-42
2022/01/27 12:48:13;;;;;;;6.10;3.10;;;;;;99938.64;;;;106714;1296;68097;-40
2022/01/27 12:50:40;;;;;;;5.30;2.90;;;;;;99931.25;;;;106668;1294;63499;-42
2022/01/27 12:53:12;;;;;;;5.60;3.10;;;;;;99930.52;;;;106829;1294;63413;-36
2022/01/27 12:55:43;;;;;;;5.40;2.90;;;;;;99925.77;;;;106604;1296;63471;-34
2022/01/27 12:58:14;;;;;;;5.90;3.00;;;;;;99925.77;;;;106813;1294;63321;-38
2022/01/27 13:00:50;;;;;;;5.40;3.10;;;;;;99926.30;;;;106826;1294;67296;-41
2022/01/27 13:03:21;;;;;;;5.50;2.90;;;;;;99918.73;;;;106594;1296;63522;-42
2022/01/27 13:05:53;;;;;;;5.30;2.50;;;;;;99923.73;;;;106753;1294;63420;-43
2022/01/27 13:08:31;;;;;;;5.40;3.00;;;;;;99913.70;;;;106796;1293;63391;-43
2022/01/27 13:11:08;;;;;;;5.40;2.70;;;;;;99913.30;;;;106641;1297;63416;-43
2022/01/27 13:13:40;;;;;;;5.20;3.00;;;;;;99910.36;;;;106750;1294;68336;-38
2022/01/27 13:16:18;;;;;;;5.90;3.10;;;;;;99906.00;;;;106577;1297;63395;-33
2022/01/27 13:19:06;;;;;;;5.80;2.70;;;;;;99905.41;;;;106658;1293;63387;-35
2022/01/27 13:21:36;;;;;;;4.90;2.50;;;;;;99897.17;;;;106814;1293;63341;-40
2022/01/27 13:24:14;;;;;;;4.80;2.40;;;;;;99898.89;;;;106586;1295;63413;-41
2022/01/27 13:26:44;;;;;;;4.90;2.40;;;;;;99896.33;;;;106619;1296;68084;-43
2022/01/27 13:29:14;;;;;;;7.50;2.70;;;;;;99897.48;;;;106556;1297;63458;-42
2022/01/27 13:31:41;;;;;;;4.90;2.50;;;;;;99898.41;;;;106618;1294;63488;-44
2022/01/27 13:34:09;;;;;;;5.30;2.60;;;;;;99889.23;;;;106576;1297;63542;-46
2022/01/27 13:36:37;;;;;;;5.20;2.50;;;;;;99886.26;;;;106621;1297;63410;-44
2022/01/27 13:39:34;;;;;;;5.20;2.50;;;;;;99876.23;;;;106683;1294;68413;-43
2022/01/27 13:42:08;;;;;;;5.00;2.80;;;;;;99874.79;;;;106564;1297;63598;-43
2022/01/27 13:44:57;;;;;;;5.10;2.70;;;;;;99872.88;;;;106582;1297;63418;-33
2022/01/27 13:47:25;;;;;;;5.40;2.60;;;;;;99864.71;;;;106738;1293;63476;-32
2022/01/27 13:50:04;;;;;;;5.40;2.90;;;;;;99860.99;;;;106608;1297;63587;-41
2022/01/27 13:52:44;;;;;;;5.80;3.00;;;;;;99856.38;;;;106649;1294;67415;-43
2022/01/27 13:55:18;;;;;;;4.80;2.40;;;;;;99855.58;;;;106610;1297;63412;-44
2022/01/27 13:58:00;;;;;;;5.30;2.60;;;;;;99849.74;;;;106787;1294;63396;-34
2022/01/27 14:00:39;;;;;;;5.90;2.70;;;;;;99843.71;;;;106824;1294;63448;-42